createdAt,value
2017-07-08T00:00:10.253Z,0
2017-07-08T00:01:12.426Z,0
2017-07-08T00:02:14.447Z,0
2017-07-08T00:03:16.440Z,0
2017-07-08T00:04:18.435Z,0
2017-07-08T00:05:20.436Z,0
2017-07-08T00:06:22.437Z,0
2017-07-08T00:07:24.400Z,0
2017-07-08T00:08:26.814Z,0
2017-07-08T00:09:29.174Z,0
2017-07-08T00:10:30.607Z,0
2017-07-08T00:11:32.866Z,0
2017-07-08T00:12:34.980Z,0
2017-07-08T00:13:37.134Z,0
2017-07-08T00:14:39.207Z,0
2017-07-08T00:15:41.249Z,0
2017-07-08T00:16:43.219Z,0
2017-07-08T00:17:45.243Z,0
2017-07-08T00:18:46.678Z,0
2017-07-08T00:19:48.610Z,0
2017-07-08T00:20:51.004Z,0
2017-07-08T00:21:52.965Z,0
2017-07-08T00:22:55.272Z,0
2017-07-08T00:23:57.523Z,0
2017-07-08T00:24:59.528Z,0
2017-07-08T00:26:01.658Z,0
2017-07-08T00:27:03.092Z,0
2017-07-08T00:28:04.518Z,0
2017-07-08T00:29:05.940Z,0
2017-07-08T00:30:07.369Z,0
2017-07-08T00:31:08.804Z,0
2017-07-08T00:32:10.258Z,0
2017-07-08T00:33:11.677Z,0
2017-07-08T00:34:13.105Z,0
2017-07-08T00:35:14.539Z,0
2017-07-08T00:36:15.964Z,0
2017-07-08T00:37:17.390Z,0
2017-07-08T00:38:18.818Z,0
2017-07-08T00:39:20.248Z,0
2017-07-08T00:40:21.673Z,0
2017-07-08T00:41:23.095Z,0
2017-07-08T00:42:24.517Z,0
2017-07-08T00:43:25.940Z,0
2017-07-08T00:44:27.368Z,0
2017-07-08T00:45:28.794Z,0
2017-07-08T00:46:30.212Z,0
2017-07-08T00:47:31.645Z,0
2017-07-08T00:48:33.065Z,0
2017-07-08T00:49:34.486Z,0
2017-07-08T00:50:35.919Z,0
2017-07-08T00:51:37.341Z,0
2017-07-08T00:52:38.775Z,0
2017-07-08T00:53:40.197Z,0
2017-07-08T00:54:41.618Z,0
2017-07-08T00:55:43.047Z,0
2017-07-08T00:56:44.472Z,0
2017-07-08T00:57:45.901Z,0
2017-07-08T00:58:47.325Z,0
2017-07-08T00:59:48.755Z,0
2017-07-08T01:00:50.195Z,0
2017-07-08T01:01:51.624Z,0
2017-07-08T01:02:53.052Z,0
2017-07-08T01:03:54.470Z,0
2017-07-08T01:04:56.005Z,0
2017-07-08T01:05:57.433Z,0
2017-07-08T01:06:58.856Z,0
2017-07-08T01:08:00.327Z,0
2017-07-08T01:09:01.746Z,0
2017-07-08T01:10:03.177Z,0
2017-07-08T01:11:04.609Z,0
2017-07-08T01:12:06.034Z,0
2017-07-08T01:13:07.458Z,0
2017-07-08T01:14:08.885Z,0
2017-07-08T01:15:10.316Z,0
2017-07-08T01:16:11.742Z,0
2017-07-08T01:17:13.163Z,0
2017-07-08T01:18:14.595Z,0
2017-07-08T01:19:16.019Z,0
2017-07-08T01:20:17.465Z,0
2017-07-08T01:21:18.864Z,0
2017-07-08T01:22:20.294Z,0
2017-07-08T01:23:21.714Z,0
2017-07-08T01:24:23.141Z,0
2017-07-08T01:25:24.566Z,0
2017-07-08T01:26:25.988Z,0
2017-07-08T01:27:27.409Z,0
2017-07-08T01:28:28.829Z,0
2017-07-08T01:29:30.259Z,0
2017-07-08T01:30:31.686Z,0
2017-07-08T01:31:33.164Z,0
2017-07-08T01:32:34.602Z,0
2017-07-08T01:33:36.018Z,0
2017-07-08T01:34:37.450Z,0
2017-07-08T01:35:38.870Z,0
2017-07-08T01:36:40.301Z,0
2017-07-08T01:37:41.724Z,0
2017-07-08T01:38:43.141Z,0
2017-07-08T01:39:44.568Z,0
2017-07-08T01:40:45.994Z,0
2017-07-08T01:41:47.428Z,0
2017-07-08T01:42:48.851Z,0
2017-07-08T01:43:50.330Z,0
2017-07-08T01:44:51.758Z,0
2017-07-08T01:45:53.186Z,0
2017-07-08T01:46:54.610Z,0
2017-07-08T01:47:56.039Z,0
2017-07-08T01:48:57.459Z,0
2017-07-08T01:49:58.880Z,0
2017-07-08T01:51:00.295Z,0
2017-07-08T01:52:01.718Z,0
2017-07-08T01:53:03.147Z,0
2017-07-08T01:54:04.571Z,0
2017-07-08T01:55:05.999Z,0
2017-07-08T01:56:07.422Z,0
2017-07-08T01:57:08.840Z,0
2017-07-08T01:58:10.267Z,0
2017-07-08T01:59:11.703Z,0
2017-07-08T02:00:13.142Z,0
2017-07-08T02:01:14.578Z,0
2017-07-08T02:02:16.003Z,0
2017-07-08T02:03:17.428Z,0
2017-07-08T02:04:18.855Z,0
2017-07-08T02:05:20.285Z,0
2017-07-08T02:06:21.716Z,0
2017-07-08T02:07:23.140Z,0
2017-07-08T02:08:24.574Z,0
2017-07-08T02:09:26.008Z,0
2017-07-08T02:10:27.435Z,0
2017-07-08T02:11:28.858Z,0
2017-07-08T02:12:30.293Z,0
2017-07-08T02:13:31.718Z,0
2017-07-08T02:14:33.147Z,0
2017-07-08T02:15:34.574Z,0
2017-07-08T02:16:36.017Z,0
2017-07-08T02:17:37.434Z,0
2017-07-08T02:18:38.857Z,0
2017-07-08T02:19:40.283Z,0
2017-07-08T02:20:41.712Z,0
2017-07-08T02:21:43.135Z,0
2017-07-08T02:22:44.558Z,0
2017-07-08T02:23:45.985Z,0
2017-07-08T02:24:47.419Z,0
2017-07-08T02:25:48.849Z,0
2017-07-08T02:26:50.265Z,0
2017-07-08T02:27:51.706Z,0
2017-07-08T02:28:53.137Z,0
2017-07-08T02:29:54.558Z,0
2017-07-08T02:30:55.986Z,0
2017-07-08T02:31:57.415Z,0
2017-07-08T02:32:58.834Z,0
2017-07-08T02:34:00.264Z,0
2017-07-08T02:35:01.693Z,0
2017-07-08T02:36:03.125Z,0
2017-07-08T02:37:04.550Z,0
2017-07-08T02:38:05.979Z,0
2017-07-08T02:39:07.402Z,0
2017-07-08T02:40:08.829Z,0
2017-07-08T02:41:10.254Z,0
2017-07-08T02:42:11.673Z,0
2017-07-08T02:43:13.097Z,0
2017-07-08T02:44:14.521Z,0
2017-07-08T02:45:15.947Z,0
2017-07-08T02:46:17.368Z,0
2017-07-08T02:47:18.844Z,0
2017-07-08T02:48:20.209Z,0
2017-07-08T02:49:21.642Z,0
2017-07-08T02:50:23.069Z,0
2017-07-08T02:51:24.494Z,0
2017-07-08T02:52:25.915Z,0
2017-07-08T02:53:27.335Z,0
2017-07-08T02:54:29.489Z,0
2017-07-08T02:55:30.921Z,0
2017-07-08T02:56:32.419Z,0
2017-07-08T02:57:33.839Z,0
2017-07-08T02:58:35.262Z,0
2017-07-08T02:59:36.767Z,0
2017-07-08T03:00:38.192Z,0
2017-07-08T03:01:39.615Z,0
2017-07-08T03:02:41.038Z,0
2017-07-08T03:03:42.470Z,0
2017-07-08T03:04:43.959Z,0
2017-07-08T03:05:45.392Z,0
2017-07-08T03:06:46.811Z,0
2017-07-08T03:07:48.341Z,0
2017-07-08T03:08:49.767Z,0
2017-07-08T03:09:51.190Z,0
2017-07-08T03:10:52.618Z,0
2017-07-08T03:11:54.049Z,0
2017-07-08T03:12:55.476Z,0
2017-07-08T03:13:56.903Z,0
2017-07-08T03:14:58.324Z,0
2017-07-08T03:15:59.754Z,0
2017-07-08T03:17:01.176Z,0
2017-07-08T03:18:02.598Z,0
2017-07-08T03:19:04.028Z,0
2017-07-08T03:20:05.459Z,0
2017-07-08T03:21:06.903Z,0
2017-07-08T03:22:08.324Z,0
2017-07-08T03:23:09.747Z,0
2017-07-08T03:24:11.178Z,0
2017-07-08T03:25:12.596Z,0
2017-07-08T03:26:14.025Z,0
2017-07-08T03:27:15.457Z,0
2017-07-08T03:28:16.885Z,0
2017-07-08T03:29:18.316Z,0
2017-07-08T03:30:19.738Z,0
2017-07-08T03:31:21.172Z,0
2017-07-08T03:32:22.612Z,0
2017-07-08T03:33:24.032Z,0
2017-07-08T03:34:25.462Z,0
2017-07-08T03:35:26.888Z,0
2017-07-08T03:36:28.317Z,0
2017-07-08T03:37:29.739Z,5
2017-07-08T03:38:31.165Z,5
2017-07-08T03:39:32.592Z,5
2017-07-08T03:40:34.016Z,5
2017-07-08T03:41:35.442Z,5
2017-07-08T03:42:36.865Z,5
2017-07-08T03:43:38.294Z,5
2017-07-08T03:44:39.719Z,5
2017-07-08T03:45:41.145Z,5
2017-07-08T03:46:42.584Z,5
2017-07-08T03:47:44.009Z,5
2017-07-08T03:48:45.430Z,5
2017-07-08T03:49:46.854Z,5
2017-07-08T03:50:48.279Z,5
2017-07-08T03:51:49.705Z,5
2017-07-08T03:52:51.129Z,5
2017-07-08T03:53:52.556Z,5
2017-07-08T03:54:53.979Z,5
2017-07-08T03:55:55.407Z,5
2017-07-08T03:56:56.836Z,5
2017-07-08T03:57:58.263Z,5
2017-07-08T03:58:59.693Z,10
2017-07-08T04:00:01.119Z,10
2017-07-08T04:01:02.552Z,10
2017-07-08T04:02:03.972Z,10
2017-07-08T04:03:05.397Z,10
2017-07-08T04:04:06.825Z,10
2017-07-08T04:05:08.257Z,10
2017-07-08T04:06:09.695Z,10
2017-07-08T04:07:11.118Z,10
2017-07-08T04:08:12.541Z,15
2017-07-08T04:09:13.970Z,15
2017-07-08T04:10:15.405Z,15
2017-07-08T04:11:16.834Z,15
2017-07-08T04:12:18.344Z,15
2017-07-08T04:13:19.766Z,15
2017-07-08T04:14:21.188Z,15
2017-07-08T04:15:22.614Z,15
2017-07-08T04:16:24.040Z,15
2017-07-08T04:17:25.475Z,15
2017-07-08T04:18:26.896Z,20
2017-07-08T04:19:28.325Z,20
2017-07-08T04:20:29.748Z,20
2017-07-08T04:21:31.170Z,20
2017-07-08T04:22:32.591Z,25
2017-07-08T04:23:34.024Z,25
2017-07-08T04:24:35.456Z,20
2017-07-08T04:25:36.889Z,20
2017-07-08T04:26:38.323Z,20
2017-07-08T04:27:39.747Z,20
2017-07-08T04:28:41.175Z,25
2017-07-08T04:29:42.594Z,25
2017-07-08T04:30:44.023Z,25
2017-07-08T04:31:45.464Z,25
2017-07-08T04:32:46.949Z,25
2017-07-08T04:33:48.361Z,25
2017-07-08T04:34:49.793Z,25
2017-07-08T04:35:51.225Z,30
2017-07-08T04:36:52.651Z,30
2017-07-08T04:37:54.075Z,30
2017-07-08T04:38:55.504Z,35
2017-07-08T04:39:56.937Z,35
2017-07-08T04:40:58.367Z,35
2017-07-08T04:41:59.799Z,35
2017-07-08T04:43:01.225Z,35
2017-07-08T04:44:02.653Z,30
2017-07-08T04:45:04.079Z,30
2017-07-08T04:46:05.506Z,35
2017-07-08T04:47:06.934Z,35
2017-07-08T04:48:08.356Z,30
2017-07-08T04:49:09.779Z,30
2017-07-08T04:50:11.209Z,30
2017-07-08T04:51:12.652Z,30
2017-07-08T04:52:14.081Z,35
2017-07-08T04:53:15.521Z,35
2017-07-08T04:54:16.952Z,30
2017-07-08T04:55:18.378Z,30
2017-07-08T04:56:19.812Z,30
2017-07-08T04:57:21.240Z,35
2017-07-08T04:58:22.669Z,35
2017-07-08T04:59:24.113Z,30
2017-07-08T05:00:25.541Z,30
2017-07-08T05:01:26.965Z,30
2017-07-08T05:02:28.393Z,30
2017-07-08T05:03:29.818Z,30
2017-07-08T05:04:31.259Z,30
2017-07-08T05:05:32.684Z,30
2017-07-08T05:06:34.117Z,30
2017-07-08T05:07:35.548Z,25
2017-07-08T05:08:36.976Z,30
2017-07-08T05:09:38.404Z,30
2017-07-08T05:10:39.833Z,30
2017-07-08T05:11:41.257Z,30
2017-07-08T05:12:42.687Z,30
2017-07-08T05:13:44.119Z,30
2017-07-08T05:14:45.556Z,30
2017-07-08T05:15:46.971Z,30
2017-07-08T05:16:48.393Z,30
2017-07-08T05:17:49.818Z,30
2017-07-08T05:18:51.252Z,30
2017-07-08T05:19:52.688Z,30
2017-07-08T05:20:54.118Z,30
2017-07-08T05:21:55.542Z,30
2017-07-08T05:22:56.972Z,30
2017-07-08T05:23:58.516Z,30
2017-07-08T05:24:59.956Z,35
2017-07-08T05:26:01.383Z,35
2017-07-08T05:27:02.807Z,35
2017-07-08T05:28:04.243Z,40
2017-07-08T05:29:05.673Z,40
2017-07-08T05:30:07.843Z,40
2017-07-08T05:31:09.278Z,45
2017-07-08T05:32:10.713Z,45
2017-07-08T05:33:12.137Z,45
2017-07-08T05:34:13.580Z,45
2017-07-08T05:35:15.005Z,45
2017-07-08T05:36:16.442Z,45
2017-07-08T05:37:17.869Z,45
2017-07-08T05:38:19.295Z,50
2017-07-08T05:39:20.721Z,50
2017-07-08T05:40:22.174Z,50
2017-07-08T05:41:23.609Z,50
2017-07-08T05:42:25.048Z,50
2017-07-08T05:43:26.471Z,50
2017-07-08T05:44:27.903Z,50
2017-07-08T05:45:29.332Z,55
2017-07-08T05:46:30.761Z,55
2017-07-08T05:47:32.192Z,55
2017-07-08T05:48:33.626Z,55
2017-07-08T05:49:35.052Z,55
2017-07-08T05:50:36.489Z,55
2017-07-08T05:51:37.920Z,55
2017-07-08T05:52:39.352Z,55
2017-07-08T05:53:40.780Z,55
2017-07-08T05:54:42.211Z,55
2017-07-08T05:55:43.637Z,55
2017-07-08T05:56:45.070Z,55
2017-07-08T05:57:46.502Z,55
2017-07-08T05:58:47.927Z,55
2017-07-08T05:59:49.356Z,55
2017-07-08T06:00:50.788Z,55
2017-07-08T06:01:52.225Z,55
2017-07-08T06:02:53.657Z,55
2017-07-08T06:03:55.670Z,55
2017-07-08T06:04:57.107Z,55
2017-07-08T06:05:58.546Z,55
2017-07-08T06:06:59.984Z,55
2017-07-08T06:08:01.412Z,60
2017-07-08T06:09:02.842Z,60
2017-07-08T06:10:04.276Z,60
2017-07-08T06:11:05.706Z,65
2017-07-08T06:12:07.134Z,65
2017-07-08T06:13:08.565Z,65
2017-07-08T06:14:09.991Z,65
2017-07-08T06:15:11.423Z,70
2017-07-08T06:16:12.849Z,70
2017-07-08T06:17:14.318Z,70
2017-07-08T06:18:15.803Z,70
2017-07-08T06:19:17.182Z,70
2017-07-08T06:20:18.613Z,70
2017-07-08T06:21:20.041Z,70
2017-07-08T06:22:21.475Z,70
2017-07-08T06:23:22.907Z,65
2017-07-08T06:24:24.345Z,65
2017-07-08T06:25:25.774Z,60
2017-07-08T06:26:27.203Z,60
2017-07-08T06:27:28.636Z,60
2017-07-08T06:28:30.070Z,60
2017-07-08T06:29:31.507Z,65
2017-07-08T06:30:32.946Z,65
2017-07-08T06:31:34.400Z,70
2017-07-08T06:32:35.828Z,70
2017-07-08T06:33:37.255Z,75
2017-07-08T06:34:39.455Z,75
2017-07-08T06:35:40.891Z,80
2017-07-08T06:36:42.313Z,80
2017-07-08T06:37:43.758Z,80
2017-07-08T06:38:45.190Z,80
2017-07-08T06:39:46.622Z,80
2017-07-08T06:40:48.048Z,80
2017-07-08T06:41:49.484Z,80
2017-07-08T06:42:51.588Z,80
2017-07-08T06:43:53.016Z,80
2017-07-08T06:44:54.484Z,80
2017-07-08T06:45:55.918Z,80
2017-07-08T06:46:57.345Z,85
2017-07-08T06:47:58.839Z,85
2017-07-08T06:49:00.271Z,85
2017-07-08T06:50:01.702Z,85
2017-07-08T06:51:03.129Z,85
2017-07-08T06:52:04.565Z,90
2017-07-08T06:53:05.996Z,85
2017-07-08T06:54:07.453Z,85
2017-07-08T06:55:08.886Z,85
2017-07-08T06:56:10.325Z,85
2017-07-08T06:57:11.749Z,85
2017-07-08T06:58:13.189Z,90
2017-07-08T06:59:14.618Z,90
2017-07-08T07:00:16.052Z,90
2017-07-08T07:01:17.492Z,90
2017-07-08T07:02:18.917Z,90
2017-07-08T07:03:20.348Z,95
2017-07-08T07:04:21.784Z,95
2017-07-08T07:05:23.221Z,95
2017-07-08T07:06:24.666Z,95
2017-07-08T07:07:26.104Z,90
2017-07-08T07:08:27.531Z,90
2017-07-08T07:09:28.983Z,85
2017-07-08T07:10:30.419Z,80
2017-07-08T07:11:31.849Z,80
2017-07-08T07:12:33.276Z,85
2017-07-08T07:13:34.711Z,85
2017-07-08T07:14:36.141Z,90
2017-07-08T07:15:37.568Z,90
2017-07-08T07:16:39.001Z,95
2017-07-08T07:17:40.425Z,90
2017-07-08T07:18:41.865Z,90
2017-07-08T07:19:43.291Z,90
2017-07-08T07:20:44.723Z,90
2017-07-08T07:21:46.145Z,90
2017-07-08T07:22:47.581Z,95
2017-07-08T07:23:49.010Z,95
2017-07-08T07:24:50.443Z,95
2017-07-08T07:25:51.868Z,95
2017-07-08T07:26:53.297Z,95
2017-07-08T07:27:54.731Z,95
2017-07-08T07:28:56.793Z,100
2017-07-08T07:29:58.257Z,100
2017-07-08T07:30:59.685Z,100
2017-07-08T07:32:01.122Z,95
2017-07-08T07:33:02.547Z,90
2017-07-08T07:34:03.985Z,95
2017-07-08T07:35:05.418Z,95
2017-07-08T07:36:06.864Z,90
2017-07-08T07:37:08.296Z,90
2017-07-08T07:38:09.727Z,95
2017-07-08T07:39:11.177Z,95
2017-07-08T07:40:12.613Z,95
2017-07-08T07:41:14.043Z,105
2017-07-08T07:42:15.472Z,105
2017-07-08T07:43:16.913Z,110
2017-07-08T07:44:18.348Z,115
2017-07-08T07:45:19.780Z,110
2017-07-08T07:46:21.211Z,115
2017-07-08T07:47:22.639Z,130
2017-07-08T07:48:24.065Z,135
2017-07-08T07:49:25.502Z,125
2017-07-08T07:50:26.938Z,115
2017-07-08T07:51:28.368Z,105
2017-07-08T07:52:29.826Z,105
2017-07-08T07:53:31.269Z,100
2017-07-08T07:54:32.700Z,105
2017-07-08T07:55:34.138Z,105
2017-07-08T07:56:35.570Z,105
2017-07-08T07:57:37.020Z,110
2017-07-08T07:58:38.456Z,110
2017-07-08T07:59:39.881Z,120
2017-07-08T08:00:41.314Z,115
2017-07-08T08:01:42.753Z,115
2017-07-08T08:02:44.184Z,110
2017-07-08T08:03:45.616Z,105
2017-07-08T08:04:47.050Z,95
2017-07-08T08:05:48.488Z,95
2017-07-08T08:06:49.961Z,95
2017-07-08T08:07:51.388Z,95
2017-07-08T08:08:52.853Z,95
2017-07-08T08:09:54.294Z,100
2017-07-08T08:10:55.728Z,110
2017-07-08T08:11:57.178Z,110
2017-07-08T08:12:58.611Z,115
2017-07-08T08:14:00.075Z,125
2017-07-08T08:15:01.498Z,120
2017-07-08T08:16:02.929Z,130
2017-07-08T08:17:04.376Z,145
2017-07-08T08:18:05.808Z,140
2017-07-08T08:19:07.257Z,135
2017-07-08T08:20:08.685Z,130
2017-07-08T08:21:10.144Z,140
2017-07-08T08:22:11.573Z,135
2017-07-08T08:23:13.006Z,140
2017-07-08T08:24:14.515Z,140
2017-07-08T08:25:15.948Z,130
2017-07-08T08:26:17.384Z,125
2017-07-08T08:27:18.840Z,115
2017-07-08T08:28:20.383Z,115
2017-07-08T08:29:21.817Z,115
2017-07-08T08:30:23.252Z,120
2017-07-08T08:31:24.693Z,120
2017-07-08T08:32:26.129Z,125
2017-07-08T08:33:27.572Z,130
2017-07-08T08:34:29.016Z,125
2017-07-08T08:35:30.450Z,125
2017-07-08T08:36:31.882Z,120
2017-07-08T08:37:33.314Z,125
2017-07-08T08:38:34.749Z,140
2017-07-08T08:39:36.193Z,155
2017-07-08T08:40:37.632Z,160
2017-07-08T08:41:39.065Z,155
2017-07-08T08:42:40.561Z,155
2017-07-08T08:43:41.993Z,145
2017-07-08T08:44:43.424Z,145
2017-07-08T08:45:44.860Z,150
2017-07-08T08:46:46.300Z,150
2017-07-08T08:47:47.727Z,155
2017-07-08T08:48:49.160Z,155
2017-07-08T08:49:50.595Z,155
2017-07-08T08:50:52.148Z,150
2017-07-08T08:51:53.581Z,145
2017-07-08T08:52:55.012Z,145
2017-07-08T08:53:56.451Z,135
2017-07-08T08:54:57.883Z,130
2017-07-08T08:55:59.311Z,130
2017-07-08T08:57:00.742Z,140
2017-07-08T08:58:02.180Z,140
2017-07-08T08:59:03.611Z,145
2017-07-08T09:00:05.042Z,140
2017-07-08T09:01:06.497Z,135
2017-07-08T09:02:07.930Z,135
2017-07-08T09:03:09.373Z,135
2017-07-08T09:04:10.808Z,130
2017-07-08T09:05:12.261Z,125
2017-07-08T09:06:13.699Z,115
2017-07-08T09:07:15.133Z,120
2017-07-08T09:08:16.568Z,125
2017-07-08T09:09:18.010Z,135
2017-07-08T09:10:19.453Z,145
2017-07-08T09:11:20.878Z,165
2017-07-08T09:12:22.330Z,175
2017-07-08T09:13:23.764Z,165
2017-07-08T09:14:25.195Z,170
2017-07-08T09:15:26.743Z,175
2017-07-08T09:16:28.228Z,155
2017-07-08T09:17:29.679Z,160
2017-07-08T09:18:31.333Z,180
2017-07-08T09:19:32.761Z,195
2017-07-08T09:20:34.205Z,200
2017-07-08T09:21:35.632Z,185
2017-07-08T09:22:37.070Z,180
2017-07-08T09:23:38.503Z,170
2017-07-08T09:24:39.953Z,165
2017-07-08T09:25:41.414Z,170
2017-07-08T09:26:42.853Z,175
2017-07-08T09:27:44.295Z,180
2017-07-08T09:28:45.724Z,175
2017-07-08T09:29:47.150Z,175
2017-07-08T09:30:48.581Z,180
2017-07-08T09:31:50.037Z,190
2017-07-08T09:32:51.481Z,185
2017-07-08T09:33:52.916Z,195
2017-07-08T09:34:54.351Z,190
2017-07-08T09:35:55.792Z,195
2017-07-08T09:36:57.227Z,195
2017-07-08T09:37:58.654Z,175
2017-07-08T09:39:00.081Z,175
2017-07-08T09:40:01.516Z,190
2017-07-08T09:41:02.946Z,195
2017-07-08T09:42:04.379Z,200
2017-07-08T09:43:05.823Z,195
2017-07-08T09:44:07.257Z,185
2017-07-08T09:45:08.688Z,175
2017-07-08T09:46:10.123Z,185
2017-07-08T09:47:11.557Z,190
2017-07-08T09:48:12.992Z,190
2017-07-08T09:49:14.418Z,175
2017-07-08T09:50:15.852Z,175
2017-07-08T09:51:17.282Z,180
2017-07-08T09:52:18.721Z,185
2017-07-08T09:53:20.164Z,190
2017-07-08T09:54:21.605Z,185
2017-07-08T09:55:23.046Z,185
2017-07-08T09:56:24.482Z,175
2017-07-08T09:57:25.920Z,180
2017-07-08T09:58:27.870Z,165
2017-07-08T09:59:29.304Z,180
2017-07-08T10:00:30.735Z,175
2017-07-08T10:01:32.177Z,165
2017-07-08T10:02:33.606Z,165
2017-07-08T10:03:35.045Z,160
2017-07-08T10:04:37.308Z,165
2017-07-08T10:05:39.502Z,155
2017-07-08T10:06:40.931Z,165
2017-07-08T10:07:42.368Z,165
2017-07-08T10:08:43.798Z,170
2017-07-08T10:09:45.240Z,180
2017-07-08T10:10:46.683Z,190
2017-07-08T10:11:48.169Z,210
2017-07-08T10:12:49.553Z,210
2017-07-08T10:13:50.981Z,205
2017-07-08T10:14:52.423Z,210
2017-07-08T10:15:53.859Z,195
2017-07-08T10:16:55.325Z,190
2017-07-08T10:17:56.769Z,185
2017-07-08T10:18:58.207Z,210
2017-07-08T10:19:59.647Z,180
2017-07-08T10:21:01.089Z,175
2017-07-08T10:22:02.530Z,190
2017-07-08T10:23:03.957Z,185
2017-07-08T10:24:05.399Z,195
2017-07-08T10:25:06.849Z,185
2017-07-08T10:26:08.305Z,185
2017-07-08T10:27:09.741Z,175
2017-07-08T10:28:11.185Z,175
2017-07-08T10:29:12.617Z,175
2017-07-08T10:30:14.049Z,180
2017-07-08T10:31:15.487Z,175
2017-07-08T10:32:16.926Z,175
2017-07-08T10:33:18.363Z,170
2017-07-08T10:34:19.809Z,175
2017-07-08T10:35:21.243Z,190
2017-07-08T10:36:22.679Z,220
2017-07-08T10:37:24.121Z,205
2017-07-08T10:38:25.564Z,215
2017-07-08T10:39:27.008Z,210
2017-07-08T10:40:28.449Z,210
2017-07-08T10:41:29.880Z,215
2017-07-08T10:42:31.314Z,220
2017-07-08T10:43:32.763Z,220
2017-07-08T10:44:34.189Z,220
2017-07-08T10:45:35.623Z,220
2017-07-08T10:46:37.053Z,210
2017-07-08T10:47:38.491Z,215
2017-07-08T10:48:39.921Z,210
2017-07-08T10:49:41.355Z,220
2017-07-08T10:50:42.787Z,220
2017-07-08T10:51:44.224Z,215
2017-07-08T10:52:46.929Z,225
2017-07-08T10:53:48.374Z,225
2017-07-08T10:54:49.813Z,220
2017-07-08T10:55:51.255Z,220
2017-07-08T10:56:52.696Z,220
2017-07-08T10:57:54.135Z,210
2017-07-08T10:58:55.579Z,200
2017-07-08T10:59:57.010Z,195
2017-07-08T11:00:58.466Z,205
2017-07-08T11:01:59.914Z,230
2017-07-08T11:03:01.356Z,225
2017-07-08T11:04:02.794Z,220
2017-07-08T11:05:04.235Z,230
2017-07-08T11:06:05.680Z,225
2017-07-08T11:07:07.116Z,220
2017-07-08T11:08:08.595Z,230
2017-07-08T11:09:10.023Z,250
2017-07-08T11:10:11.461Z,250
2017-07-08T11:11:12.892Z,255
2017-07-08T11:12:14.333Z,255
2017-07-08T11:13:15.766Z,235
2017-07-08T11:14:17.223Z,270
2017-07-08T11:15:18.681Z,245
2017-07-08T11:16:50.331Z,240
2017-07-08T11:17:51.783Z,275
2017-07-08T11:18:53.221Z,285
2017-07-08T11:19:54.662Z,295
2017-07-08T11:21:00.089Z,310
2017-07-08T11:22:33.173Z,255
2017-07-08T11:23:47.829Z,260
2017-07-08T11:24:52.691Z,270
2017-07-08T11:25:59.514Z,255
2017-07-08T11:27:03.053Z,215
2017-07-08T11:28:04.220Z,205
2017-07-08T11:29:05.655Z,200
2017-07-08T11:30:07.095Z,190
2017-07-08T11:31:08.536Z,190
2017-07-08T11:32:09.980Z,190
2017-07-08T11:33:11.415Z,225
2017-07-08T11:34:12.851Z,240
2017-07-08T11:35:14.297Z,250
2017-07-08T11:36:15.728Z,270
2017-07-08T11:37:17.163Z,280
2017-07-08T11:38:18.670Z,295
2017-07-08T11:39:20.111Z,285
2017-07-08T11:40:21.542Z,295
2017-07-08T11:41:22.991Z,290
2017-07-08T11:42:24.427Z,310
2017-07-08T11:43:25.865Z,305
2017-07-08T11:44:27.310Z,280
2017-07-08T11:45:28.803Z,310
2017-07-08T11:46:30.240Z,275
2017-07-08T11:47:31.690Z,310
2017-07-08T11:48:33.123Z,305
2017-07-08T11:49:34.557Z,255
2017-07-08T11:50:35.991Z,265
2017-07-08T11:51:37.426Z,195
2017-07-08T11:52:38.863Z,190
2017-07-08T11:53:40.317Z,180
2017-07-08T11:54:41.756Z,180
2017-07-08T11:55:43.198Z,180
2017-07-08T11:56:44.632Z,175
2017-07-08T11:57:46.090Z,170
2017-07-08T11:58:47.526Z,180
2017-07-08T11:59:48.975Z,200
2017-07-08T12:00:50.415Z,210
2017-07-08T12:01:51.864Z,220
2017-07-08T12:02:53.579Z,235
2017-07-08T12:03:55.951Z,295
2017-07-08T12:04:57.415Z,270
2017-07-08T12:05:58.912Z,285
2017-07-08T12:07:00.827Z,300
2017-07-08T12:08:02.694Z,315
2017-07-08T12:09:04.125Z,290
2017-07-08T12:10:05.573Z,250
2017-07-08T12:11:07.021Z,250
2017-07-08T12:12:08.453Z,220
2017-07-08T12:13:09.885Z,210
2017-07-08T12:14:11.903Z,205
2017-07-08T12:15:13.327Z,200
2017-07-08T12:16:14.763Z,215
2017-07-08T12:17:16.202Z,245
2017-07-08T12:18:17.652Z,285
2017-07-08T12:19:19.087Z,320
2017-07-08T12:20:20.524Z,305
2017-07-08T12:21:21.965Z,300
2017-07-08T12:22:23.404Z,340
2017-07-08T12:23:24.833Z,345
2017-07-08T12:24:26.274Z,320
2017-07-08T12:25:27.718Z,250
2017-07-08T12:26:29.162Z,210
2017-07-08T12:27:30.603Z,240
2017-07-08T12:28:32.041Z,215
2017-07-08T12:29:33.474Z,205
2017-07-08T12:30:34.922Z,190
2017-07-08T12:31:36.372Z,175
2017-07-08T12:32:37.830Z,160
2017-07-08T12:33:39.273Z,160
2017-07-08T12:34:40.723Z,160
2017-07-08T12:35:42.159Z,155
2017-07-08T12:36:43.600Z,165
2017-07-08T12:37:45.037Z,190
2017-07-08T12:38:46.479Z,200
2017-07-08T12:39:47.918Z,200
2017-07-08T12:40:49.351Z,200
2017-07-08T12:41:50.792Z,195
2017-07-08T12:42:52.241Z,190
2017-07-08T12:43:53.675Z,195
2017-07-08T12:44:55.117Z,225
2017-07-08T12:45:56.555Z,280
2017-07-08T12:46:57.992Z,320
2017-07-08T12:47:59.426Z,310
2017-07-08T12:49:00.861Z,310
2017-07-08T12:50:02.334Z,315
2017-07-08T12:51:03.763Z,315
2017-07-08T12:52:05.193Z,310
2017-07-08T12:53:06.629Z,320
2017-07-08T12:54:08.080Z,315
2017-07-08T12:55:09.521Z,305
2017-07-08T12:56:10.974Z,285
2017-07-08T12:57:12.405Z,310
2017-07-08T12:58:13.843Z,290
2017-07-08T12:59:15.276Z,320
2017-07-08T13:00:16.709Z,300
2017-07-08T13:01:18.147Z,235
2017-07-08T13:02:19.578Z,220
2017-07-08T13:03:21.025Z,235
2017-07-08T13:04:22.462Z,235
2017-07-08T13:05:23.895Z,245
2017-07-08T13:06:25.339Z,220
2017-07-08T13:07:26.767Z,195
2017-07-08T13:08:28.212Z,190
2017-07-08T13:09:29.648Z,170
2017-07-08T13:10:31.087Z,175
2017-07-08T13:11:32.531Z,100
2017-07-08T13:12:33.965Z,190
2017-07-08T13:13:35.399Z,190
2017-07-08T13:14:36.826Z,200
2017-07-08T13:15:38.260Z,235
2017-07-08T13:16:39.694Z,225
2017-07-08T13:17:41.147Z,240
2017-07-08T13:18:42.570Z,250
2017-07-08T13:19:44.014Z,270
2017-07-08T13:20:45.453Z,280
2017-07-08T13:21:46.883Z,290
2017-07-08T13:22:48.316Z,290
2017-07-08T13:23:49.744Z,280
2017-07-08T13:24:51.185Z,260
2017-07-08T13:25:52.624Z,275
2017-07-08T13:26:54.079Z,245
2017-07-08T13:27:56.511Z,245
2017-07-08T13:28:57.948Z,230
2017-07-08T13:29:59.634Z,235
2017-07-08T13:31:01.184Z,240
2017-07-08T13:32:02.639Z,225
2017-07-08T13:33:04.076Z,230
2017-07-08T13:34:05.515Z,215
2017-07-08T13:35:06.953Z,240
2017-07-08T13:36:08.392Z,255
2017-07-08T13:37:09.832Z,245
2017-07-08T13:38:11.265Z,250
2017-07-08T13:39:12.707Z,245
2017-07-08T13:40:14.137Z,270
2017-07-08T13:41:15.581Z,275
2017-07-08T13:42:17.026Z,300
2017-07-08T13:43:18.458Z,145
2017-07-08T13:44:19.904Z,305
2017-07-08T13:45:21.334Z,285
2017-07-08T13:46:22.781Z,260
2017-07-08T13:47:24.211Z,250
2017-07-08T13:48:25.659Z,245
2017-07-08T13:49:27.105Z,265
2017-07-08T13:50:28.539Z,280
2017-07-08T13:51:29.974Z,295
2017-07-08T13:52:31.415Z,305
2017-07-08T13:53:32.843Z,320
2017-07-08T13:54:34.286Z,335
2017-07-08T13:55:35.725Z,345
2017-07-08T13:56:37.163Z,360
2017-07-08T13:57:38.605Z,420
2017-07-08T13:58:40.045Z,985
2017-07-08T13:59:41.496Z,625
2017-07-08T14:00:42.941Z,500
2017-07-08T14:01:44.388Z,465
2017-07-08T14:02:45.834Z,245
2017-07-08T14:03:47.270Z,300
2017-07-08T14:04:48.711Z,290
2017-07-08T14:05:50.147Z,320
2017-07-08T14:06:51.585Z,280
2017-07-08T14:07:53.016Z,255
2017-07-08T14:08:54.452Z,230
2017-07-08T14:09:55.892Z,220
2017-07-08T14:10:57.328Z,220
2017-07-08T14:11:58.760Z,220
2017-07-08T14:13:00.200Z,225
2017-07-08T14:14:01.634Z,240
2017-07-08T14:15:03.076Z,185
2017-07-08T14:16:04.515Z,270
2017-07-08T14:17:05.953Z,275
2017-07-08T14:18:07.384Z,265
2017-07-08T14:19:08.821Z,250
2017-07-08T14:20:10.283Z,250
2017-07-08T14:21:11.718Z,215
2017-07-08T14:22:13.147Z,200
2017-07-08T14:23:14.581Z,195
2017-07-08T14:24:16.052Z,180
2017-07-08T14:25:17.492Z,145
2017-07-08T14:26:18.923Z,135
2017-07-08T14:27:20.352Z,135
2017-07-08T14:28:21.791Z,130
2017-07-08T14:29:23.223Z,125
2017-07-08T14:30:24.669Z,145
2017-07-08T14:31:26.115Z,150